createdAt,value
2018-05-13T00:00:30.179Z,29.27
2018-05-13T00:02:56.183Z,31.40
2018-05-13T00:05:22.193Z,31.63
2018-05-13T00:07:48.871Z,30.80
2018-05-13T00:10:14.850Z,31.30
2018-05-13T00:12:40.808Z,31.53
2018-05-13T00:15:06.802Z,29.97
2018-05-13T00:17:32.770Z,30.60
2018-05-13T00:19:58.724Z,32.93
2018-05-13T00:22:25.465Z,34.10
2018-05-13T00:24:51.413Z,34.90
2018-05-13T00:27:17.419Z,34.07
2018-05-13T00:29:43.383Z,32.87
2018-05-13T00:32:10.084Z,30.33
2018-05-13T00:34:36.084Z,31.47
2018-05-13T00:37:02.782Z,35.13
2018-05-13T00:39:28.790Z,31.70
2018-05-13T00:41:54.739Z,33.00
2018-05-13T00:44:20.707Z,31.00
2018-05-13T00:46:46.703Z,33.10
2018-05-13T00:49:12.647Z,32.87
2018-05-13T00:51:38.665Z,32.93
2018-05-13T00:54:17.194Z,30.90
2018-05-13T00:56:43.151Z,33.13
2018-05-13T00:59:09.131Z,32.10
2018-05-13T01:01:35.134Z,30.50
2018-05-13T01:04:01.136Z,34.27
2018-05-13T01:06:27.828Z,33.00
2018-05-13T01:08:53.793Z,35.50
2018-05-13T01:11:19.782Z,33.73
2018-05-13T01:13:45.737Z,32.63
2018-05-13T01:16:11.740Z,34.53
2018-05-13T01:18:37.733Z,31.83
2018-05-13T01:21:05.196Z,35.43
2018-05-13T01:23:31.174Z,35.83
2018-05-13T01:25:57.152Z,34.70
2018-05-13T01:28:23.146Z,35.10
2018-05-13T01:30:49.137Z,34.70
2018-05-13T01:33:15.120Z,34.93
2018-05-13T01:35:41.066Z,31.97
2018-05-13T01:38:07.087Z,37.60
2018-05-13T01:40:33.039Z,32.20
2018-05-13T01:42:59.020Z,33.30
2018-05-13T01:45:24.986Z,35.70
2018-05-13T01:47:51.721Z,34.30
2018-05-13T01:50:17.733Z,35.13
2018-05-13T01:52:43.692Z,35.10
2018-05-13T01:55:09.702Z,33.97
2018-05-13T01:57:42.715Z,32.47
2018-05-13T02:00:08.759Z,34.07
2018-05-13T02:02:34.724Z,33.67
2018-05-13T02:05:01.473Z,32.57
2018-05-13T02:07:28.198Z,33.13
2018-05-13T02:09:54.152Z,33.33
2018-05-13T02:12:20.888Z,33.70
2018-05-13T02:14:46.848Z,34.80
2018-05-13T02:17:13.604Z,36.03
2018-05-13T02:19:40.300Z,35.80
2018-05-13T02:22:06.272Z,34.47
2018-05-13T02:24:32.296Z,34.43
2018-05-13T02:26:58.312Z,34.30
2018-05-13T02:29:24.301Z,31.77
2018-05-13T02:31:50.987Z,34.70
2018-05-13T02:34:16.959Z,34.80
2018-05-13T02:36:42.927Z,35.50
2018-05-13T02:39:09.664Z,34.43
2018-05-13T02:41:35.623Z,33.73
2018-05-13T02:44:02.308Z,34.27
2018-05-13T02:46:28.335Z,36.73
2018-05-13T02:48:54.291Z,36.37
2018-05-13T02:51:20.271Z,36.10
2018-05-13T02:53:46.265Z,34.07
2018-05-13T02:56:12.267Z,31.80
2018-05-13T02:58:38.259Z,33.93
2018-05-13T03:01:04.205Z,34.93
2018-05-13T03:03:30.224Z,32.53
2018-05-13T03:05:56.179Z,32.30
2018-05-13T03:08:22.177Z,35.20
2018-05-13T03:10:48.181Z,33.87
2018-05-13T03:13:14.135Z,35.50
2018-05-13T03:15:40.122Z,34.50
2018-05-13T03:18:06.827Z,33.40
2018-05-13T03:20:32.815Z,34.70
2018-05-13T03:22:59.529Z,35.67
2018-05-13T03:25:25.552Z,34.53
2018-05-13T03:27:51.540Z,34.60
2018-05-13T03:30:18.244Z,35.87
2018-05-13T03:32:44.256Z,35.57
2018-05-13T03:35:10.213Z,34.73
2018-05-13T03:37:36.795Z,37.73
2018-05-13T03:40:02.738Z,38.17
2018-05-13T03:42:28.707Z,35.50
2018-05-13T03:44:54.681Z,32.40
2018-05-13T03:47:20.653Z,34.57
2018-05-13T03:49:46.639Z,34.33
2018-05-13T03:52:12.625Z,36.03
2018-05-13T03:54:38.581Z,34.17
2018-05-13T03:57:04.577Z,36.00
2018-05-13T03:59:30.539Z,34.13
2018-05-13T04:01:57.300Z,32.20
2018-05-13T04:04:23.997Z,34.20
2018-05-13T04:06:49.989Z,35.40
2018-05-13T04:09:29.235Z,35.77
2018-05-13T04:12:09.703Z,35.00
2018-05-13T04:14:50.343Z,34.43
2018-05-13T04:17:16.329Z,33.60
2018-05-13T04:19:43.093Z,36.03
2018-05-13T04:22:09.108Z,35.30
2018-05-13T04:24:35.087Z,36.57
2018-05-13T04:27:01.105Z,38.77
2018-05-13T04:29:27.102Z,37.27
2018-05-13T04:31:53.091Z,33.27
2018-05-13T04:34:19.081Z,37.17
2018-05-13T04:36:45.107Z,35.50
2018-05-13T04:39:11.056Z,36.30
2018-05-13T04:41:37.003Z,38.17
2018-05-13T04:44:04.000Z,36.87
2018-05-13T04:46:30.001Z,37.20
2018-05-13T04:48:56.744Z,37.53
2018-05-13T04:51:22.701Z,38.30
2018-05-13T04:53:49.429Z,36.40
2018-05-13T04:56:15.404Z,37.97
2018-05-13T04:58:41.397Z,38.10
2018-05-13T05:01:07.348Z,39.10
2018-05-13T05:03:34.079Z,41.73
2018-05-13T05:06:00.073Z,39.30
2018-05-13T05:08:26.032Z,33.20
2018-05-13T05:10:52.055Z,37.80
2018-05-13T05:13:18.033Z,35.80
2018-05-13T05:15:43.986Z,34.30
2018-05-13T05:18:10.725Z,37.33
2018-05-13T05:20:36.698Z,37.23
2018-05-13T05:23:02.683Z,35.30
2018-05-13T05:25:28.699Z,34.40
2018-05-13T05:27:54.717Z,32.10
2018-05-13T05:30:20.684Z,32.80
2018-05-13T05:32:46.685Z,32.70
2018-05-13T05:35:12.648Z,32.57
2018-05-13T05:37:38.641Z,31.40
2018-05-13T05:40:05.606Z,31.30
2018-05-13T05:42:31.579Z,30.53
2018-05-13T05:44:57.600Z,33.40
2018-05-13T05:47:23.565Z,30.43
2018-05-13T05:49:49.550Z,29.60
2018-05-13T05:52:22.505Z,30.50
2018-05-13T05:54:48.488Z,28.07
2018-05-13T05:57:14.435Z,29.10
2018-05-13T05:59:40.446Z,26.53
2018-05-13T06:02:07.204Z,29.70
2018-05-13T06:04:33.152Z,26.40
2018-05-13T06:06:59.160Z,25.90
2018-05-13T06:09:25.959Z,24.73
2018-05-13T06:11:51.992Z,23.13
2018-05-13T06:14:18.199Z,25.73
2018-05-13T06:16:44.909Z,25.90
2018-05-13T06:19:10.934Z,25.83
2018-05-13T06:21:37.495Z,24.83
2018-05-13T06:24:03.504Z,23.53
2018-05-13T06:26:29.529Z,23.03
2018-05-13T06:28:55.491Z,22.30
2018-05-13T06:31:21.461Z,20.27
2018-05-13T06:33:47.514Z,19.60
2018-05-13T06:36:14.231Z,18.67
2018-05-13T06:38:40.233Z,17.70
2018-05-13T06:41:06.228Z,16.53
2018-05-13T06:43:32.275Z,15.97
2018-05-13T06:45:58.255Z,14.10
2018-05-13T06:48:24.216Z,15.00
2018-05-13T06:50:50.208Z,13.00
2018-05-13T06:53:16.205Z,14.73
2018-05-13T06:55:42.189Z,12.73
2018-05-13T06:58:08.293Z,13.53
2018-05-13T07:00:34.999Z,11.90
2018-05-13T07:03:01.085Z,11.77
2018-05-13T07:05:27.874Z,11.00
2018-05-13T07:07:53.871Z,11.30
2018-05-13T07:10:19.963Z,10.93
2018-05-13T07:12:45.892Z,10.80
2018-05-13T07:15:11.883Z,9.87
2018-05-13T07:17:38.653Z,10.00
2018-05-13T07:20:04.639Z,11.00
2018-05-13T07:22:30.611Z,9.37
2018-05-13T07:24:57.380Z,8.60
2018-05-13T07:27:23.384Z,8.07
2018-05-13T07:29:49.415Z,8.70
2018-05-13T07:32:15.361Z,9.43
2018-05-13T07:34:41.504Z,9.27
2018-05-13T07:37:07.592Z,8.57
2018-05-13T07:39:33.560Z,7.83
2018-05-13T07:41:59.651Z,8.37
2018-05-13T07:44:25.716Z,7.90
2018-05-13T07:46:51.697Z,7.67
2018-05-13T07:49:18.459Z,8.63
2018-05-13T07:51:45.198Z,7.73
2018-05-13T07:54:11.257Z,7.87
2018-05-13T07:56:38.016Z,8.50
2018-05-13T07:59:04.746Z,7.90
2018-05-13T08:01:30.759Z,8.67
2018-05-13T08:03:56.772Z,8.20
2018-05-13T08:06:22.801Z,9.10
2018-05-13T08:08:48.792Z,8.00
2018-05-13T08:11:16.282Z,8.33
2018-05-13T08:13:43.036Z,8.50
2018-05-13T08:16:09.068Z,8.00
2018-05-13T08:18:35.811Z,8.10
2018-05-13T08:21:02.530Z,8.53
2018-05-13T08:23:28.545Z,7.97
2018-05-13T08:25:54.568Z,8.97
2018-05-13T08:28:20.572Z,8.23
2018-05-13T08:30:46.560Z,7.87
2018-05-13T08:33:12.561Z,7.73
2018-05-13T08:35:39.344Z,7.67
2018-05-13T08:38:05.376Z,8.60
2018-05-13T08:40:31.367Z,9.10
2018-05-13T08:42:57.369Z,8.00
2018-05-13T08:45:23.425Z,9.17
2018-05-13T08:47:49.378Z,9.37
2018-05-13T08:50:15.343Z,9.37
2018-05-13T08:52:42.094Z,7.73
2018-05-13T08:55:08.838Z,9.70
2018-05-13T08:57:35.591Z,9.07
2018-05-13T09:00:02.316Z,9.13
2018-05-13T09:02:28.292Z,9.50
2018-05-13T09:04:55.045Z,9.23
2018-05-13T09:07:21.812Z,10.47
2018-05-13T09:09:47.801Z,8.67
2018-05-13T09:12:13.804Z,9.37
2018-05-13T09:14:39.769Z,11.20
2018-05-13T09:17:05.872Z,12.60
2018-05-13T09:19:31.898Z,11.50
2018-05-13T09:21:57.933Z,10.37
2018-05-13T09:24:23.903Z,9.47
2018-05-13T09:26:49.944Z,11.17
2018-05-13T09:29:15.967Z,10.20
2018-05-13T09:31:42.034Z,10.77
2018-05-13T09:34:08.556Z,9.80
2018-05-13T09:36:34.532Z,9.57
2018-05-13T09:39:00.540Z,9.30
2018-05-13T09:41:26.494Z,8.70
2018-05-13T09:43:52.469Z,8.87
2018-05-13T09:46:18.477Z,8.73
2018-05-13T09:48:44.527Z,6.67
2018-05-13T09:51:11.406Z,6.90
2018-05-13T09:53:37.392Z,7.03
2018-05-13T09:56:03.375Z,7.40
2018-05-13T09:58:29.448Z,7.10
2018-05-13T10:00:55.484Z,8.53
2018-05-13T10:03:21.502Z,6.47
2018-05-13T10:05:47.517Z,5.90
2018-05-13T10:08:13.527Z,5.37
2018-05-13T10:10:39.589Z,5.63
2018-05-13T10:13:05.566Z,5.50
2018-05-13T10:15:31.564Z,6.70
2018-05-13T10:17:57.687Z,5.27
2018-05-13T10:20:23.660Z,5.10
2018-05-13T10:22:49.668Z,5.70
2018-05-13T10:25:15.748Z,4.50
2018-05-13T10:27:42.490Z,4.80
2018-05-13T10:30:09.209Z,4.87
2018-05-13T10:32:35.278Z,4.83
2018-05-13T10:35:01.240Z,4.47
2018-05-13T10:37:27.276Z,5.10
2018-05-13T10:39:53.256Z,4.60
2018-05-13T10:42:19.356Z,4.67
2018-05-13T10:44:45.386Z,4.80
2018-05-13T10:47:12.135Z,5.07
2018-05-13T10:49:38.910Z,4.40
2018-05-13T10:52:04.936Z,5.00
2018-05-13T10:54:31.702Z,4.87
2018-05-13T10:56:57.716Z,5.60
2018-05-13T10:59:24.430Z,4.90
2018-05-13T11:01:50.457Z,4.40
2018-05-13T11:04:16.518Z,5.77
2018-05-13T11:06:42.537Z,5.83
2018-05-13T11:09:08.577Z,5.03
2018-05-13T11:11:34.585Z,5.70
2018-05-13T11:14:00.547Z,5.13
2018-05-13T11:16:26.557Z,4.80
2018-05-13T11:18:52.641Z,5.53
2018-05-13T11:21:18.654Z,6.03
2018-05-13T11:23:44.649Z,5.93
2018-05-13T11:26:12.055Z,5.57
2018-05-13T11:28:38.011Z,5.30
2018-05-13T11:31:04.060Z,5.63
2018-05-13T11:33:30.188Z,5.33
2018-05-13T11:35:56.197Z,6.40
2018-05-13T11:38:22.185Z,5.97
2018-05-13T11:40:48.691Z,5.90
2018-05-13T11:43:14.708Z,5.33
2018-05-13T11:45:40.728Z,5.70
2018-05-13T11:48:07.052Z,5.67
2018-05-13T11:50:33.072Z,6.40
2018-05-13T11:52:59.085Z,6.67
2018-05-13T11:55:25.066Z,5.70
2018-05-13T11:57:51.133Z,5.73
2018-05-13T12:00:17.124Z,5.97
2018-05-13T12:02:43.221Z,5.03
2018-05-13T12:05:09.226Z,5.07
2018-05-13T12:07:35.947Z,5.63
2018-05-13T12:10:02.044Z,4.70
2018-05-13T12:12:28.048Z,6.47
2018-05-13T12:14:54.895Z,5.80
2018-05-13T12:17:20.979Z,5.47
2018-05-13T12:19:46.948Z,5.47
2018-05-13T12:22:12.986Z,5.30
2018-05-13T12:24:39.025Z,5.30
2018-05-13T12:27:05.033Z,5.90
2018-05-13T12:29:31.076Z,5.57
2018-05-13T12:31:57.048Z,5.70
2018-05-13T12:34:23.129Z,6.00
2018-05-13T12:36:49.094Z,6.00
2018-05-13T12:39:15.098Z,6.17
2018-05-13T12:41:41.071Z,7.00
2018-05-13T12:44:07.084Z,6.17
2018-05-13T12:46:33.096Z,7.17
2018-05-13T12:48:59.092Z,5.87
2018-05-13T12:51:25.113Z,5.97
2018-05-13T12:53:51.160Z,6.33
2018-05-13T12:56:17.216Z,6.63
2018-05-13T12:58:43.180Z,6.60
2018-05-13T13:01:09.220Z,7.53
2018-05-13T13:03:35.192Z,6.30
2018-05-13T13:06:01.245Z,6.20
2018-05-13T13:08:27.263Z,6.23
2018-05-13T13:10:53.306Z,6.43
2018-05-13T13:13:19.343Z,6.60
2018-05-13T13:15:46.139Z,5.57
2018-05-13T13:18:12.225Z,5.37
2018-05-13T13:20:38.265Z,6.20
2018-05-13T13:23:04.258Z,5.70
2018-05-13T13:25:31.000Z,6.07
2018-05-13T13:27:57.752Z,6.17
2018-05-13T13:30:24.561Z,5.87
2018-05-13T13:32:50.587Z,6.30
2018-05-13T13:35:16.575Z,5.70
2018-05-13T13:37:42.599Z,5.90
2018-05-13T13:40:08.620Z,5.20
2018-05-13T13:42:34.620Z,5.77
2018-05-13T13:45:00.624Z,5.57
2018-05-13T13:47:27.397Z,5.37
2018-05-13T13:49:54.111Z,5.90
2018-05-13T13:52:20.911Z,5.50
2018-05-13T13:54:46.953Z,5.43
2018-05-13T13:57:12.988Z,5.50
2018-05-13T13:59:39.014Z,5.00
2018-05-13T14:02:05.765Z,5.10
2018-05-13T14:04:32.515Z,4.80
2018-05-13T14:06:59.257Z,5.50
2018-05-13T14:09:25.321Z,6.47
2018-05-13T14:11:51.321Z,6.70
2018-05-13T14:14:17.309Z,5.70
2018-05-13T14:16:43.348Z,6.97
2018-05-13T14:19:09.368Z,4.83
2018-05-13T14:21:35.366Z,6.00
2018-05-13T14:24:01.420Z,5.97
2018-05-13T14:26:28.208Z,5.90
2018-05-13T14:28:54.233Z,5.87
2018-05-13T14:31:21.007Z,6.77
2018-05-13T14:33:47.047Z,6.40
2018-05-13T14:36:13.063Z,5.70
2018-05-13T14:38:39.085Z,5.10
2018-05-13T14:41:05.812Z,5.70
2018-05-13T14:43:31.878Z,5.83
2018-05-13T14:45:58.611Z,6.13
2018-05-13T14:48:24.627Z,5.90
2018-05-13T14:50:50.613Z,4.83
2018-05-13T14:53:17.355Z,6.03
2018-05-13T14:55:43.383Z,6.13
2018-05-13T14:58:09.403Z,5.90
2018-05-13T15:00:35.408Z,5.83
2018-05-13T15:03:02.307Z,5.80
2018-05-13T15:05:28.332Z,5.80
2018-05-13T15:07:54.324Z,6.20
2018-05-13T15:10:20.419Z,5.70
2018-05-13T15:12:46.485Z,6.20
2018-05-13T15:15:12.553Z,4.80
2018-05-13T15:17:38.548Z,5.33
2018-05-13T15:20:05.341Z,5.60
2018-05-13T15:22:33.415Z,4.77
2018-05-13T15:24:59.368Z,5.07
2018-05-13T15:27:25.370Z,4.60
2018-05-13T15:29:52.116Z,4.63
2018-05-13T15:32:18.119Z,5.53
2018-05-13T15:34:44.140Z,6.37
2018-05-13T15:37:10.158Z,5.00
2018-05-13T15:39:36.199Z,5.10
2018-05-13T15:42:02.240Z,5.70
2018-05-13T15:44:28.248Z,6.07
2018-05-13T15:46:54.976Z,6.30
2018-05-13T15:49:20.980Z,5.53
2018-05-13T15:51:46.987Z,5.10
2018-05-13T15:54:13.093Z,5.60
2018-05-13T15:56:39.110Z,5.80
2018-05-13T15:59:05.098Z,6.37
2018-05-13T16:01:31.109Z,5.60
2018-05-13T16:03:57.133Z,5.40
2018-05-13T16:06:23.105Z,5.50
2018-05-13T16:08:49.956Z,4.80
2018-05-13T16:11:15.927Z,5.73
2018-05-13T16:13:41.967Z,5.33
2018-05-13T16:16:07.978Z,5.97
2018-05-13T16:18:34.834Z,4.67
2018-05-13T16:21:00.876Z,4.80
2018-05-13T16:23:26.845Z,5.00
2018-05-13T16:25:52.807Z,4.87
2018-05-13T16:28:19.109Z,4.73
2018-05-13T16:30:45.244Z,5.40
2018-05-13T16:33:11.309Z,4.87
2018-05-13T16:35:37.294Z,4.90
2018-05-13T16:38:04.037Z,4.43
2018-05-13T16:40:30.827Z,4.13
2018-05-13T16:42:56.815Z,4.33
2018-05-13T16:45:22.837Z,5.70
2018-05-13T16:47:48.848Z,4.47
2018-05-13T16:50:14.920Z,4.33
2018-05-13T16:52:40.960Z,4.30
2018-05-13T16:55:06.944Z,4.50
2018-05-13T16:57:32.992Z,4.30
2018-05-13T16:59:59.007Z,5.10
2018-05-13T17:02:25.052Z,4.40
2018-05-13T17:04:50.979Z,4.90
2018-05-13T17:07:16.963Z,4.30
2018-05-13T17:09:43.039Z,4.50
2018-05-13T17:12:09.063Z,3.90
2018-05-13T17:14:35.102Z,4.60
2018-05-13T17:17:01.947Z,4.63
2018-05-13T17:19:28.767Z,4.93
2018-05-13T17:21:55.513Z,4.17
2018-05-13T17:24:21.526Z,4.17
2018-05-13T17:26:47.552Z,5.03
2018-05-13T17:29:14.353Z,4.60
2018-05-13T17:31:40.363Z,5.50
2018-05-13T17:34:06.423Z,4.53
2018-05-13T17:36:32.377Z,4.37
2018-05-13T17:38:58.371Z,4.47
2018-05-13T17:41:24.364Z,4.80
2018-05-13T17:43:50.372Z,4.27
2018-05-13T17:46:16.356Z,4.83
2018-05-13T17:48:43.152Z,4.43
2018-05-13T17:51:16.056Z,4.10
2018-05-13T17:53:42.130Z,4.47
2018-05-13T17:56:08.096Z,4.43
2018-05-13T17:58:34.820Z,5.10
2018-05-13T18:01:00.828Z,4.97
2018-05-13T18:03:26.808Z,5.47
2018-05-13T18:05:53.580Z,5.30
2018-05-13T18:08:19.563Z,4.40
2018-05-13T18:10:45.619Z,4.80
2018-05-13T18:13:11.610Z,4.20
2018-05-13T18:15:37.624Z,3.90
2018-05-13T18:18:04.357Z,4.53
2018-05-13T18:20:30.327Z,4.30
2018-05-13T18:22:56.369Z,4.30
2018-05-13T18:25:22.352Z,4.60
2018-05-13T18:27:48.365Z,4.60
2018-05-13T18:30:14.380Z,4.57
2018-05-13T18:32:40.433Z,3.93
2018-05-13T18:35:06.388Z,4.60
2018-05-13T18:37:32.383Z,4.33
2018-05-13T18:39:58.432Z,4.33
2018-05-13T18:42:24.407Z,4.53
2018-05-13T18:44:50.664Z,4.23
2018-05-13T18:47:16.644Z,4.20
2018-05-13T18:49:42.696Z,4.13
2018-05-13T18:52:08.677Z,4.50
2018-05-13T18:54:34.679Z,4.80
2018-05-13T18:57:00.715Z,4.10
2018-05-13T18:59:26.698Z,4.50
2018-05-13T19:01:52.703Z,4.80
2018-05-13T19:04:18.676Z,4.30
2018-05-13T19:06:45.450Z,4.67
2018-05-13T19:09:11.468Z,5.90
2018-05-13T19:11:38.172Z,8.53
2018-05-13T19:14:04.189Z,5.90
2018-05-13T19:16:30.188Z,6.30
2018-05-13T19:18:56.927Z,5.87
2018-05-13T19:21:22.957Z,9.60
2018-05-13T19:23:48.956Z,10.20
2018-05-13T19:26:15.030Z,9.20
2018-05-13T19:28:41.081Z,6.87
2018-05-13T19:31:07.104Z,4.90
2018-05-13T19:33:33.178Z,5.07
2018-05-13T19:35:59.883Z,3.77
2018-05-13T19:38:25.876Z,4.60
2018-05-13T19:40:51.905Z,4.87
2018-05-13T19:43:18.739Z,4.37
2018-05-13T19:45:44.853Z,5.13
2018-05-13T19:48:10.898Z,5.07
2018-05-13T19:50:36.867Z,4.83
2018-05-13T19:53:03.663Z,4.90
2018-05-13T19:55:29.674Z,4.20
2018-05-13T19:57:57.852Z,5.00
2018-05-13T20:00:24.597Z,4.60
2018-05-13T20:02:51.716Z,4.60
2018-05-13T20:05:17.518Z,5.33
2018-05-13T20:07:43.556Z,4.83
2018-05-13T20:10:10.065Z,4.13
2018-05-13T20:12:36.064Z,5.10
2018-05-13T20:15:02.068Z,4.30
2018-05-13T20:17:28.042Z,4.80
2018-05-13T20:19:54.046Z,4.53
2018-05-13T20:22:20.097Z,5.00
2018-05-13T20:24:46.150Z,5.83
2018-05-13T20:27:12.140Z,5.80
2018-05-13T20:29:38.956Z,4.67
2018-05-13T20:32:04.928Z,5.00
2018-05-13T20:34:31.682Z,5.43
2018-05-13T20:36:58.411Z,5.50
2018-05-13T20:39:24.404Z,5.23
2018-05-13T20:41:50.371Z,6.13
2018-05-13T20:44:16.415Z,4.83
2018-05-13T20:46:42.398Z,5.13
2018-05-13T20:49:08.437Z,4.97
2018-05-13T20:51:34.422Z,5.30
2018-05-13T20:54:00.413Z,5.40
2018-05-13T20:56:26.430Z,5.87
2018-05-13T20:58:53.184Z,5.80
2018-05-13T21:01:19.929Z,5.20
2018-05-13T21:03:46.690Z,5.47
2018-05-13T21:06:13.502Z,5.53
2018-05-13T21:08:39.473Z,5.53
2018-05-13T21:11:06.275Z,6.00
2018-05-13T21:13:32.255Z,5.57
2018-05-13T21:15:58.296Z,5.27
2018-05-13T21:18:24.272Z,5.10
2018-05-13T21:20:50.237Z,4.93
2018-05-13T21:23:16.247Z,5.20
2018-05-13T21:25:42.273Z,5.40
2018-05-13T21:28:08.235Z,5.80
2018-05-13T21:30:34.392Z,5.67
2018-05-13T21:33:01.129Z,5.63
2018-05-13T21:35:27.152Z,5.17
2018-05-13T21:37:53.176Z,5.73
2018-05-13T21:40:19.186Z,5.70
2018-05-13T21:42:46.026Z,5.50
2018-05-13T21:45:12.061Z,5.63
2018-05-13T21:47:38.024Z,5.73
2018-05-13T21:50:04.733Z,6.20
2018-05-13T21:52:31.477Z,5.40
2018-05-13T21:54:57.445Z,4.90
2018-05-13T21:57:23.456Z,6.40
2018-05-13T21:59:49.450Z,6.20
2018-05-13T22:02:15.499Z,6.07
2018-05-13T22:04:53.697Z,5.60
2018-05-13T22:07:20.496Z,6.53
2018-05-13T22:09:47.219Z,5.97
2018-05-13T22:12:14.017Z,5.30
2018-05-13T22:14:40.016Z,6.00
2018-05-13T22:17:06.004Z,6.20
2018-05-13T22:19:32.007Z,5.63
2018-05-13T22:21:58.015Z,6.10
2018-05-13T22:24:24.740Z,6.93
2018-05-13T22:26:50.720Z,5.60
2018-05-13T22:29:16.818Z,5.90
2018-05-13T22:31:44.589Z,6.37
2018-05-13T22:34:11.372Z,6.90
2018-05-13T22:36:38.071Z,6.67
2018-05-13T22:39:04.100Z,6.20
2018-05-13T22:41:30.140Z,5.40
2018-05-13T22:43:56.110Z,5.40
2018-05-13T22:46:22.115Z,6.23
2018-05-13T22:48:48.154Z,5.90
2018-05-13T22:51:14.163Z,5.80
2018-05-13T22:53:40.124Z,6.53
2018-05-13T22:56:06.140Z,6.30
2018-05-13T22:58:32.136Z,5.87
2018-05-13T23:00:58.160Z,5.97
2018-05-13T23:03:24.900Z,5.93
2018-05-13T23:05:50.873Z,6.27
2018-05-13T23:08:17.652Z,7.00
2018-05-13T23:10:43.662Z,6.43
2018-05-13T23:13:09.631Z,6.57
2018-05-13T23:15:35.669Z,5.97
2018-05-13T23:18:01.648Z,6.40
2018-05-13T23:20:27.672Z,6.50
2018-05-13T23:22:53.628Z,6.33
2018-05-13T23:25:19.632Z,6.67
2018-05-13T23:27:45.644Z,6.40
2018-05-13T23:30:11.712Z,5.97
2018-05-13T23:32:37.729Z,7.60
2018-05-13T23:35:03.724Z,7.10
2018-05-13T23:37:29.740Z,6.43
2018-05-13T23:39:55.769Z,6.17
2018-05-13T23:42:21.743Z,6.53
2018-05-13T23:44:47.733Z,5.77
2018-05-13T23:47:13.786Z,6.73
2018-05-13T23:49:39.769Z,6.03
2018-05-13T23:52:06.476Z,6.80
2018-05-13T23:54:32.487Z,6.90
2018-05-13T23:56:58.460Z,6.87
2018-05-13T23:59:24.452Z,6.97
